sensor_id;sensor_type;location;lat;lon;timestamp;temperature;humidity
7307;DHT22;3694;48.732;9.248;2022-12-07T00:01:41;2.90;99.90
7307;DHT22;3694;48.732;9.248;2022-12-07T00:04:11;2.90;99.90
7307;DHT22;3694;48.732;9.248;2022-12-07T00:06:40;2.90;99.90
7307;DHT22;3694;48.732;9.248;2022-12-07T00:09:07;2.90;99.90
7307;DHT22;3694;48.732;9.248;2022-12-07T00:11:34;2.90;99.90
7307;DHT22;3694;48.732;9.248;2022-12-07T00:14:03;2.90;99.90
7307;DHT22;3694;48.732;9.248;2022-12-07T00:16:31;2.90;99.90
7307;DHT22;3694;48.732;9.248;2022-12-07T00:18:57;2.80;99.90
7307;DHT22;3694;48.732;9.248;2022-12-07T00:21:29;2.80;99.90
7307;DHT22;3694;48.732;9.248;2022-12-07T00:23:55;2.80;99.90
7307;DHT22;3694;48.732;9.248;2022-12-07T00:26:33;2.90;99.90
7307;DHT22;3694;48.732;9.248;2022-12-07T00:29:02;2.80;99.90
7307;DHT22;3694;48.732;9.248;2022-12-07T00:31:32;2.80;99.90
7307;DHT22;3694;48.732;9.248;2022-12-07T00:33:59;2.80;99.90
7307;DHT22;3694;48.732;9.248;2022-12-07T00:36:25;2.80;99.90
7307;DHT22;3694;48.732;9.248;2022-12-07T00:38:50;2.90;99.90
7307;DHT22;3694;48.732;9.248;2022-12-07T00:41:22;3.00;99.90
7307;DHT22;3694;48.732;9.248;2022-12-07T00:43:48;2.90;99.90
7307;DHT22;3694;48.732;9.248;2022-12-07T00:46:15;2.90;99.90
7307;DHT22;3694;48.732;9.248;2022-12-07T00:48:41;2.80;99.90
7307;DHT22;3694;48.732;9.248;2022-12-07T00:51:07;2.80;99.90
7307;DHT22;3694;48.732;9.248;2022-12-07T00:53:36;2.90;99.90
7307;DHT22;3694;48.732;9.248;2022-12-07T00:56:17;2.90;99.90
7307;DHT22;3694;48.732;9.248;2022-12-07T00:58:43;2.90;99.90
7307;DHT22;3694;48.732;9.248;2022-12-07T01:01:10;2.90;99.90
7307;DHT22;3694;48.732;9.248;2022-12-07T01:03:36;2.90;99.90
7307;DHT22;3694;48.732;9.248;2022-12-07T01:06:02;2.80;99.90
7307;DHT22;3694;48.732;9.248;2022-12-07T01:08:28;2.80;99.90
7307;DHT22;3694;48.732;9.248;2022-12-07T01:11:05;2.80;99.90
7307;DHT22;3694;48.732;9.248;2022-12-07T01:13:32;2.90;99.90
7307;DHT22;3694;48.732;9.248;2022-12-07T01:16:00;2.90;99.90
7307;DHT22;3694;48.732;9.248;2022-12-07T01:18:30;2.80;99.90
7307;DHT22;3694;48.732;9.248;2022-12-07T01:21:04;2.70;99.90
7307;DHT22;3694;48.732;9.248;2022-12-07T01:23:31;2.80;99.90
7307;DHT22;3694;48.732;9.248;2022-12-07T01:26:01;2.80;99.90
7307;DHT22;3694;48.732;9.248;2022-12-07T01:28:28;2.70;99.90
7307;DHT22;3694;48.732;9.248;2022-12-07T01:31:03;2.80;99.90
7307;DHT22;3694;48.732;9.248;2022-12-07T01:33:32;2.70;99.90
7307;DHT22;3694;48.732;9.248;2022-12-07T01:36:21;2.60;99.90
7307;DHT22;3694;48.732;9.248;2022-12-07T01:38:50;2.60;99.90
7307;DHT22;3694;48.732;9.248;2022-12-07T01:41:20;2.60;99.90
7307;DHT22;3694;48.732;9.248;2022-12-07T01:44:12;2.60;99.90
7307;DHT22;3694;48.732;9.248;2022-12-07T01:46:38;2.60;99.90
7307;DHT22;3694;48.732;9.248;2022-12-07T01:49:07;2.50;99.90
7307;DHT22;3694;48.732;9.248;2022-12-07T01:51:34;2.50;99.90
7307;DHT22;3694;48.732;9.248;2022-12-07T01:54:02;2.60;99.90
7307;DHT22;3694;48.732;9.248;2022-12-07T01:56:29;2.60;99.90
7307;DHT22;3694;48.732;9.248;2022-12-07T01:58:56;2.50;99.90
7307;DHT22;3694;48.732;9.248;2022-12-07T02:01:23;2.50;99.90
7307;DHT22;3694;48.732;9.248;2022-12-07T02:03:48;2.40;99.90
7307;DHT22;3694;48.732;9.248;2022-12-07T02:06:19;2.40;99.90
7307;DHT22;3694;48.732;9.248;2022-12-07T02:08:46;2.30;99.90
7307;DHT22;3694;48.732;9.248;2022-12-07T02:11:12;2.30;99.90
7307;DHT22;3694;48.732;9.248;2022-12-07T02:13:40;2.30;99.90
7307;DHT22;3694;48.732;9.248;2022-12-07T02:24:13;2.10;99.90
7307;DHT22;3694;48.732;9.248;2022-12-07T02:27:01;2.10;99.90
7307;DHT22;3694;48.732;9.248;2022-12-07T02:30:13;2.20;99.90
7307;DHT22;3694;48.732;9.248;2022-12-07T02:38:16;2.20;99.90
7307;DHT22;3694;48.732;9.248;2022-12-07T02:40:48;2.00;99.90
7307;DHT22;3694;48.732;9.248;2022-12-07T02:43:23;2.10;99.90
7307;DHT22;3694;48.732;9.248;2022-12-07T02:45:50;2.00;99.90
7307;DHT22;3694;48.732;9.248;2022-12-07T02:48:18;2.00;99.90
7307;DHT22;3694;48.732;9.248;2022-12-07T02:50:48;2.10;99.90
7307;DHT22;3694;48.732;9.248;2022-12-07T02:53:36;2.10;99.90
7307;DHT22;3694;48.732;9.248;2022-12-07T02:59:02;2.00;99.90
7307;DHT22;3694;48.732;9.248;2022-12-07T03:04:43;2.10;99.90
7307;DHT22;3694;48.732;9.248;2022-12-07T03:13:18;2.10;99.90
7307;DHT22;3694;48.732;9.248;2022-12-07T03:16:12;2.10;99.90
7307;DHT22;3694;48.732;9.248;2022-12-07T03:21:33;2.20;99.90
7307;DHT22;3694;48.732;9.248;2022-12-07T03:24:05;2.20;99.90
7307;DHT22;3694;48.732;9.248;2022-12-07T03:26:35;2.10;99.90
7307;DHT22;3694;48.732;9.248;2022-12-07T03:29:07;2.20;99.90
7307;DHT22;3694;48.732;9.248;2022-12-07T03:31:40;2.20;99.90
7307;DHT22;3694;48.732;9.248;2022-12-07T03:37:39;2.20;99.90
7307;DHT22;3694;48.732;9.248;2022-12-07T03:39:59;2.20;99.90
7307;DHT22;3694;48.732;9.248;2022-12-07T03:42:27;2.20;99.90
7307;DHT22;3694;48.732;9.248;2022-12-07T03:44:52;2.20;99.90
7307;DHT22;3694;48.732;9.248;2022-12-07T03:47:26;2.20;99.90
7307;DHT22;3694;48.732;9.248;2022-12-07T03:52:42;2.20;99.90
7307;DHT22;3694;48.732;9.248;2022-12-07T03:55:16;2.20;99.90
7307;DHT22;3694;48.732;9.248;2022-12-07T03:57:45;2.20;99.90
7307;DHT22;3694;48.732;9.248;2022-12-07T04:00:13;2.20;99.90
7307;DHT22;3694;48.732;9.248;2022-12-07T04:02:39;2.20;99.90
7307;DHT22;3694;48.732;9.248;2022-12-07T04:05:06;2.20;99.90
7307;DHT22;3694;48.732;9.248;2022-12-07T04:07:32;2.20;99.90
7307;DHT22;3694;48.732;9.248;2022-12-07T04:09:57;2.20;99.90
7307;DHT22;3694;48.732;9.248;2022-12-07T04:12:23;2.10;99.90
7307;DHT22;3694;48.732;9.248;2022-12-07T04:14:49;2.20;99.90
7307;DHT22;3694;48.732;9.248;2022-12-07T04:17:15;2.10;99.90
7307;DHT22;3694;48.732;9.248;2022-12-07T04:19:40;2.10;99.90
7307;DHT22;3694;48.732;9.248;2022-12-07T04:22:06;2.10;99.90
7307;DHT22;3694;48.732;9.248;2022-12-07T04:24:32;2.10;99.90
7307;DHT22;3694;48.732;9.248;2022-12-07T04:26:58;2.10;99.90
7307;DHT22;3694;48.732;9.248;2022-12-07T04:29:23;2.10;99.90
7307;DHT22;3694;48.732;9.248;2022-12-07T04:31:49;2.00;99.90
7307;DHT22;3694;48.732;9.248;2022-12-07T04:34:16;2.00;99.90
7307;DHT22;3694;48.732;9.248;2022-12-07T04:36:42;2.00;99.90
7307;DHT22;3694;48.732;9.248;2022-12-07T04:39:17;2.00;99.90
7307;DHT22;3694;48.732;9.248;2022-12-07T04:41:44;1.90;99.90
7307;DHT22;3694;48.732;9.248;2022-12-07T04:44:09;1.80;99.90
7307;DHT22;3694;48.732;9.248;2022-12-07T04:46:35;1.70;99.90
7307;DHT22;3694;48.732;9.248;2022-12-07T04:49:01;1.70;99.90
7307;DHT22;3694;48.732;9.248;2022-12-07T04:51:28;1.50;99.90
7307;DHT22;3694;48.732;9.248;2022-12-07T04:53:54;1.40;99.90
7307;DHT22;3694;48.732;9.248;2022-12-07T04:56:21;1.20;99.90
7307;DHT22;3694;48.732;9.248;2022-12-07T04:58:48;1.20;99.90
7307;DHT22;3694;48.732;9.248;2022-12-07T05:01:15;1.30;99.90
7307;DHT22;3694;48.732;9.248;2022-12-07T05:03:41;1.60;99.90
7307;DHT22;3694;48.732;9.248;2022-12-07T05:06:07;1.80;99.90
7307;DHT22;3694;48.732;9.248;2022-12-07T05:08:33;1.80;99.90
7307;DHT22;3694;48.732;9.248;2022-12-07T05:10:59;1.80;99.90
7307;DHT22;3694;48.732;9.248;2022-12-07T05:13:25;1.70;99.90
7307;DHT22;3694;48.732;9.248;2022-12-07T05:15:51;1.70;99.90
7307;DHT22;3694;48.732;9.248;2022-12-07T05:18:16;1.80;99.90
7307;DHT22;3694;48.732;9.248;2022-12-07T05:20:42;1.80;99.90
7307;DHT22;3694;48.732;9.248;2022-12-07T05:23:08;1.70;99.90
7307;DHT22;3694;48.732;9.248;2022-12-07T05:25:34;1.80;99.90
7307;DHT22;3694;48.732;9.248;2022-12-07T05:27:59;1.80;99.90
7307;DHT22;3694;48.732;9.248;2022-12-07T05:30:27;1.70;99.90
7307;DHT22;3694;48.732;9.248;2022-12-07T05:32:53;1.60;99.90
7307;DHT22;3694;48.732;9.248;2022-12-07T05:35:18;1.50;99.90
7307;DHT22;3694;48.732;9.248;2022-12-07T05:37:44;1.50;99.90
7307;DHT22;3694;48.732;9.248;2022-12-07T05:40:10;1.40;99.90
7307;DHT22;3694;48.732;9.248;2022-12-07T05:42:37;1.30;99.90
7307;DHT22;3694;48.732;9.248;2022-12-07T05:45:03;1.20;99.90
7307;DHT22;3694;48.732;9.248;2022-12-07T05:47:29;1.20;99.90
7307;DHT22;3694;48.732;9.248;2022-12-07T05:49:55;1.00;99.90
7307;DHT22;3694;48.732;9.248;2022-12-07T05:52:21;0.80;99.90
7307;DHT22;3694;48.732;9.248;2022-12-07T05:54:46;0.60;99.90
7307;DHT22;3694;48.732;9.248;2022-12-07T05:57:12;0.50;99.90
7307;DHT22;3694;48.732;9.248;2022-12-07T05:59:37;0.40;99.90
7307;DHT22;3694;48.732;9.248;2022-12-07T06:02:06;0.30;99.90
7307;DHT22;3694;48.732;9.248;2022-12-07T06:04:34;0.30;99.90
7307;DHT22;3694;48.732;9.248;2022-12-07T06:07:00;0.60;99.90
7307;DHT22;3694;48.732;9.248;2022-12-07T06:09:27;0.80;99.90
7307;DHT22;3694;48.732;9.248;2022-12-07T06:11:53;0.90;99.90
7307;DHT22;3694;48.732;9.248;2022-12-07T06:14:38;0.90;99.90
7307;DHT22;3694;48.732;9.248;2022-12-07T06:17:04;1.00;99.90
7307;DHT22;3694;48.732;9.248;2022-12-07T06:19:30;1.00;99.90
7307;DHT22;3694;48.732;9.248;2022-12-07T06:21:56;1.00;99.90
7307;DHT22;3694;48.732;9.248;2022-12-07T06:24:22;1.00;99.90
7307;DHT22;3694;48.732;9.248;2022-12-07T06:26:48;0.90;99.90
7307;DHT22;3694;48.732;9.248;2022-12-07T06:29:14;0.90;99.90
7307;DHT22;3694;48.732;9.248;2022-12-07T06:31:39;1.00;99.90
7307;DHT22;3694;48.732;9.248;2022-12-07T06:34:11;0.90;99.90
7307;DHT22;3694;48.732;9.248;2022-12-07T06:36:37;0.90;99.90
7307;DHT22;3694;48.732;9.248;2022-12-07T06:39:03;0.80;99.90
7307;DHT22;3694;48.732;9.248;2022-12-07T06:41:29;0.80;99.90
7307;DHT22;3694;48.732;9.248;2022-12-07T06:43:55;0.80;99.90
7307;DHT22;3694;48.732;9.248;2022-12-07T06:46:20;0.80;99.90
7307;DHT22;3694;48.732;9.248;2022-12-07T06:48:46;0.90;99.90
7307;DHT22;3694;48.732;9.248;2022-12-07T06:51:11;0.90;99.90
7307;DHT22;3694;48.732;9.248;2022-12-07T06:53:37;1.00;99.90
7307;DHT22;3694;48.732;9.248;2022-12-07T06:56:03;1.10;99.90
7307;DHT22;3694;48.732;9.248;2022-12-07T06:58:29;1.20;99.90
7307;DHT22;3694;48.732;9.248;2022-12-07T07:00:55;1.40;99.90
7307;DHT22;3694;48.732;9.248;2022-12-07T07:03:21;1.30;99.90
7307;DHT22;3694;48.732;9.248;2022-12-07T07:05:46;1.30;99.90
7307;DHT22;3694;48.732;9.248;2022-12-07T07:08:12;1.30;99.90
7307;DHT22;3694;48.732;9.248;2022-12-07T07:10:38;1.30;99.90
7307;DHT22;3694;48.732;9.248;2022-12-07T07:13:04;1.20;99.90
7307;DHT22;3694;48.732;9.248;2022-12-07T07:15:31;1.20;99.90
7307;DHT22;3694;48.732;9.248;2022-12-07T07:17:57;1.20;99.90
7307;DHT22;3694;48.732;9.248;2022-12-07T07:20:22;1.30;99.90
7307;DHT22;3694;48.732;9.248;2022-12-07T07:22:48;1.30;99.90
7307;DHT22;3694;48.732;9.248;2022-12-07T07:25:15;1.30;99.90
7307;DHT22;3694;48.732;9.248;2022-12-07T07:27:40;1.30;99.90
7307;DHT22;3694;48.732;9.248;2022-12-07T07:30:06;1.40;99.90
7307;DHT22;3694;48.732;9.248;2022-12-07T07:32:32;1.30;99.90
7307;DHT22;3694;48.732;9.248;2022-12-07T07:34:57;1.30;99.90
7307;DHT22;3694;48.732;9.248;2022-12-07T07:37:23;1.40;99.90
7307;DHT22;3694;48.732;9.248;2022-12-07T07:39:49;1.40;99.90
7307;DHT22;3694;48.732;9.248;2022-12-07T07:42:15;1.50;99.90
7307;DHT22;3694;48.732;9.248;2022-12-07T07:44:40;1.80;99.90
7307;DHT22;3694;48.732;9.248;2022-12-07T07:47:06;1.60;99.90
7307;DHT22;3694;48.732;9.248;2022-12-07T07:49:31;1.70;99.90
7307;DHT22;3694;48.732;9.248;2022-12-07T07:51:57;1.80;99.90
7307;DHT22;3694;48.732;9.248;2022-12-07T07:54:22;1.90;99.90
7307;DHT22;3694;48.732;9.248;2022-12-07T07:56:48;2.00;99.90
7307;DHT22;3694;48.732;9.248;2022-12-07T07:59:15;2.00;99.90
7307;DHT22;3694;48.732;9.248;2022-12-07T08:01:40;2.00;99.90
7307;DHT22;3694;48.732;9.248;2022-12-07T08:04:06;2.00;99.90
7307;DHT22;3694;48.732;9.248;2022-12-07T08:06:31;2.10;99.90
7307;DHT22;3694;48.732;9.248;2022-12-07T08:08:57;2.20;99.90
7307;DHT22;3694;48.732;9.248;2022-12-07T08:11:23;2.20;99.90
7307;DHT22;3694;48.732;9.248;2022-12-07T08:13:49;2.20;99.90
7307;DHT22;3694;48.732;9.248;2022-12-07T08:16:15;2.30;99.90
7307;DHT22;3694;48.732;9.248;2022-12-07T08:18:41;2.30;99.90
7307;DHT22;3694;48.732;9.248;2022-12-07T08:21:11;2.40;99.90
7307;DHT22;3694;48.732;9.248;2022-12-07T08:23:37;2.50;99.90
7307;DHT22;3694;48.732;9.248;2022-12-07T08:26:04;2.50;99.90
7307;DHT22;3694;48.732;9.248;2022-12-07T08:28:30;2.50;99.90
7307;DHT22;3694;48.732;9.248;2022-12-07T08:31:05;2.60;99.90
7307;DHT22;3694;48.732;9.248;2022-12-07T08:33:31;2.80;99.90
7307;DHT22;3694;48.732;9.248;2022-12-07T08:36:05;2.70;99.90
7307;DHT22;3694;48.732;9.248;2022-12-07T08:38:31;2.80;99.90
7307;DHT22;3694;48.732;9.248;2022-12-07T08:40:58;2.80;99.90
7307;DHT22;3694;48.732;9.248;2022-12-07T08:43:24;2.90;99.90
7307;DHT22;3694;48.732;9.248;2022-12-07T08:46:09;3.00;99.90
7307;DHT22;3694;48.732;9.248;2022-12-07T08:48:42;3.10;99.90
7307;DHT22;3694;48.732;9.248;2022-12-07T08:51:09;3.10;99.90
7307;DHT22;3694;48.732;9.248;2022-12-07T08:53:35;3.20;99.90
7307;DHT22;3694;48.732;9.248;2022-12-07T08:56:02;3.20;99.90
7307;DHT22;3694;48.732;9.248;2022-12-07T08:58:27;3.30;99.90
7307;DHT22;3694;48.732;9.248;2022-12-07T09:00:53;3.40;99.90
7307;DHT22;3694;48.732;9.248;2022-12-07T09:03:18;3.40;99.90
7307;DHT22;3694;48.732;9.248;2022-12-07T09:05:44;3.50;99.90
7307;DHT22;3694;48.732;9.248;2022-12-07T09:08:09;3.60;99.90
7307;DHT22;3694;48.732;9.248;2022-12-07T09:10:35;3.70;99.90
7307;DHT22;3694;48.732;9.248;2022-12-07T09:13:01;3.80;99.90
7307;DHT22;3694;48.732;9.248;2022-12-07T09:15:28;3.80;99.90
7307;DHT22;3694;48.732;9.248;2022-12-07T09:17:54;4.00;99.90
7307;DHT22;3694;48.732;9.248;2022-12-07T09:20:19;4.00;99.90
7307;DHT22;3694;48.732;9.248;2022-12-07T09:22:45;4.20;99.90
7307;DHT22;3694;48.732;9.248;2022-12-07T09:25:11;4.30;99.90
7307;DHT22;3694;48.732;9.248;2022-12-07T09:27:36;4.30;99.90
7307;DHT22;3694;48.732;9.248;2022-12-07T09:30:03;4.30;99.90
7307;DHT22;3694;48.732;9.248;2022-12-07T09:32:29;4.50;99.90
7307;DHT22;3694;48.732;9.248;2022-12-07T09:34:55;4.30;99.90
7307;DHT22;3694;48.732;9.248;2022-12-07T09:37:20;4.30;99.90
7307;DHT22;3694;48.732;9.248;2022-12-07T09:39:46;4.30;99.90
7307;DHT22;3694;48.732;9.248;2022-12-07T09:45:02;4.50;99.90
7307;DHT22;3694;48.732;9.248;2022-12-07T09:47:29;4.50;99.90
7307;DHT22;3694;48.732;9.248;2022-12-07T09:50:00;4.60;99.90
7307;DHT22;3694;48.732;9.248;2022-12-07T09:52:28;4.70;99.90
7307;DHT22;3694;48.732;9.248;2022-12-07T09:54:54;4.70;99.90
7307;DHT22;3694;48.732;9.248;2022-12-07T09:57:31;4.80;99.80
7307;DHT22;3694;48.732;9.248;2022-12-07T10:00:01;4.90;99.60
7307;DHT22;3694;48.732;9.248;2022-12-07T10:02:40;5.00;99.40
7307;DHT22;3694;48.732;9.248;2022-12-07T10:05:22;5.20;98.90
7307;DHT22;3694;48.732;9.248;2022-12-07T10:07:48;5.30;98.30
7307;DHT22;3694;48.732;9.248;2022-12-07T10:10:30;5.30;98.40
7307;DHT22;3694;48.732;9.248;2022-12-07T10:13:01;5.30;97.70
7307;DHT22;3694;48.732;9.248;2022-12-07T10:18:30;5.30;97.60
7307;DHT22;3694;48.732;9.248;2022-12-07T10:23:35;5.50;97.80
7307;DHT22;3694;48.732;9.248;2022-12-07T10:28:46;5.40;97.40
7307;DHT22;3694;48.732;9.248;2022-12-07T10:31:17;5.50;97.40
7307;DHT22;3694;48.732;9.248;2022-12-07T10:33:55;5.50;97.40
7307;DHT22;3694;48.732;9.248;2022-12-07T10:36:42;5.60;97.10
7307;DHT22;3694;48.732;9.248;2022-12-07T10:39:14;5.70;97.30
7307;DHT22;3694;48.732;9.248;2022-12-07T10:45:16;5.50;97.00
7307;DHT22;3694;48.732;9.248;2022-12-07T10:50:35;5.50;96.90
7307;DHT22;3694;48.732;9.248;2022-12-07T10:53:34;5.50;96.90
7307;DHT22;3694;48.732;9.248;2022-12-07T11:01:47;5.30;97.20
7307;DHT22;3694;48.732;9.248;2022-12-07T11:04:21;5.30;97.20
7307;DHT22;3694;48.732;9.248;2022-12-07T11:07:25;5.40;97.30
7307;DHT22;3694;48.732;9.248;2022-12-07T11:12:59;5.40;97.10
7307;DHT22;3694;48.732;9.248;2022-12-07T11:18:32;5.30;97.20
7307;DHT22;3694;48.732;9.248;2022-12-07T11:24:00;5.20;97.30
7307;DHT22;3694;48.732;9.248;2022-12-07T11:35:05;5.10;97.40
7307;DHT22;3694;48.732;9.248;2022-12-07T11:37:37;5.10;97.40
7307;DHT22;3694;48.732;9.248;2022-12-07T11:40:14;5.20;97.50
7307;DHT22;3694;48.732;9.248;2022-12-07T11:43:11;5.10;97.30
7307;DHT22;3694;48.732;9.248;2022-12-07T11:45:33;5.10;97.20
7307;DHT22;3694;48.732;9.248;2022-12-07T11:48:06;5.00;97.10
7307;DHT22;3694;48.732;9.248;2022-12-07T11:50:41;5.00;97.20
7307;DHT22;3694;48.732;9.248;2022-12-07T11:53:16;5.00;97.30
7307;DHT22;3694;48.732;9.248;2022-12-07T11:58:57;5.20;97.30
7307;DHT22;3694;48.732;9.248;2022-12-07T12:04:34;5.30;97.30
7307;DHT22;3694;48.732;9.248;2022-12-07T12:07:06;5.20;97.10
7307;DHT22;3694;48.732;9.248;2022-12-07T12:09:43;5.20;97.00
7307;DHT22;3694;48.732;9.248;2022-12-07T12:21:00;4.90;97.50
7307;DHT22;3694;48.732;9.248;2022-12-07T12:23:45;4.80;97.60
7307;DHT22;3694;48.732;9.248;2022-12-07T12:26:19;4.70;97.40
7307;DHT22;3694;48.732;9.248;2022-12-07T12:28:55;4.60;97.60
7307;DHT22;3694;48.732;9.248;2022-12-07T12:33:50;4.50;97.70
7307;DHT22;3694;48.732;9.248;2022-12-07T12:36:23;4.50;97.90
7307;DHT22;3694;48.732;9.248;2022-12-07T12:46:58;4.40;99.70
7307;DHT22;3694;48.732;9.248;2022-12-07T12:51:53;4.40;99.90
7307;DHT22;3694;48.732;9.248;2022-12-07T12:54:22;4.30;99.90
7307;DHT22;3694;48.732;9.248;2022-12-07T12:57:15;4.20;99.90
7307;DHT22;3694;48.732;9.248;2022-12-07T13:02:39;4.30;99.90
7307;DHT22;3694;48.732;9.248;2022-12-07T13:18:00;4.00;99.90
7307;DHT22;3694;48.732;9.248;2022-12-07T13:20:55;3.90;99.90
7307;DHT22;3694;48.732;9.248;2022-12-07T13:29:05;4.00;99.90
7307;DHT22;3694;48.732;9.248;2022-12-07T13:31:34;4.00;99.90
7307;DHT22;3694;48.732;9.248;2022-12-07T13:34:03;4.00;99.90
7307;DHT22;3694;48.732;9.248;2022-12-07T13:36:37;4.10;99.90
7307;DHT22;3694;48.732;9.248;2022-12-07T13:39:19;4.00;99.90
7307;DHT22;3694;48.732;9.248;2022-12-07T13:41:48;4.00;99.90
7307;DHT22;3694;48.732;9.248;2022-12-07T13:44:17;4.10;99.90
7307;DHT22;3694;48.732;9.248;2022-12-07T13:47:19;4.10;99.90
7307;DHT22;3694;48.732;9.248;2022-12-07T13:49:55;4.10;99.90
7307;DHT22;3694;48.732;9.248;2022-12-07T13:52:29;4.10;99.90
7307;DHT22;3694;48.732;9.248;2022-12-07T13:57:25;4.10;99.90
7307;DHT22;3694;48.732;9.248;2022-12-07T13:59:51;4.10;99.90
7307;DHT22;3694;48.732;9.248;2022-12-07T14:02:35;4.10;99.90
7307;DHT22;3694;48.732;9.248;2022-12-07T14:05:14;4.20;99.90
7307;DHT22;3694;48.732;9.248;2022-12-07T14:10:31;4.20;99.90
7307;DHT22;3694;48.732;9.248;2022-12-07T14:12:59;4.20;99.90
7307;DHT22;3694;48.732;9.248;2022-12-07T14:15:30;4.30;99.90
7307;DHT22;3694;48.732;9.248;2022-12-07T14:17:57;4.30;99.90
7307;DHT22;3694;48.732;9.248;2022-12-07T14:20:35;4.20;99.90
7307;DHT22;3694;48.732;9.248;2022-12-07T14:23:02;4.30;99.90
7307;DHT22;3694;48.732;9.248;2022-12-07T14:25:45;4.30;99.90
7307;DHT22;3694;48.732;9.248;2022-12-07T14:30:51;4.20;99.90
7307;DHT22;3694;48.732;9.248;2022-12-07T14:33:16;4.10;99.90
7307;DHT22;3694;48.732;9.248;2022-12-07T14:35:42;4.20;99.90
7307;DHT22;3694;48.732;9.248;2022-12-07T14:38:08;4.20;99.90
7307;DHT22;3694;48.732;9.248;2022-12-07T14:40:33;4.20;99.90
7307;DHT22;3694;48.732;9.248;2022-12-07T14:43:06;4.20;99.90
7307;DHT22;3694;48.732;9.248;2022-12-07T14:45:32;4.10;99.90
7307;DHT22;3694;48.732;9.248;2022-12-07T14:47:58;4.00;99.90
7307;DHT22;3694;48.732;9.248;2022-12-07T14:50:23;3.90;99.90
7307;DHT22;3694;48.732;9.248;2022-12-07T14:52:56;3.90;99.90
7307;DHT22;3694;48.732;9.248;2022-12-07T14:57:49;3.80;99.70
7307;DHT22;3694;48.732;9.248;2022-12-07T15:00:16;3.80;99.60
7307;DHT22;3694;48.732;9.248;2022-12-07T15:02:43;3.70;99.90
7307;DHT22;3694;48.732;9.248;2022-12-07T15:05:08;3.70;99.90
7307;DHT22;3694;48.732;9.248;2022-12-07T15:07:34;3.60;99.90
7307;DHT22;3694;48.732;9.248;2022-12-07T15:10:00;3.60;99.90
7307;DHT22;3694;48.732;9.248;2022-12-07T15:12:25;3.60;99.90
7307;DHT22;3694;48.732;9.248;2022-12-07T15:14:51;3.60;99.90
7307;DHT22;3694;48.732;9.248;2022-12-07T15:17:16;3.50;99.90
7307;DHT22;3694;48.732;9.248;2022-12-07T15:19:42;3.40;99.90
7307;DHT22;3694;48.732;9.248;2022-12-07T15:22:08;3.40;99.90
7307;DHT22;3694;48.732;9.248;2022-12-07T15:24:35;3.50;99.90
7307;DHT22;3694;48.732;9.248;2022-12-07T15:27:00;3.40;99.90
7307;DHT22;3694;48.732;9.248;2022-12-07T15:29:26;3.40;99.90
7307;DHT22;3694;48.732;9.248;2022-12-07T15:31:52;3.40;99.90
7307;DHT22;3694;48.732;9.248;2022-12-07T15:34:17;3.40;99.90
7307;DHT22;3694;48.732;9.248;2022-12-07T15:36:43;3.40;99.90
7307;DHT22;3694;48.732;9.248;2022-12-07T15:39:10;3.40;99.90
7307;DHT22;3694;48.732;9.248;2022-12-07T15:41:35;3.40;99.90
7307;DHT22;3694;48.732;9.248;2022-12-07T15:44:01;3.40;99.90
7307;DHT22;3694;48.732;9.248;2022-12-07T15:46:45;3.40;99.90
7307;DHT22;3694;48.732;9.248;2022-12-07T15:49:14;3.40;99.90
7307;DHT22;3694;48.732;9.248;2022-12-07T15:51:40;3.40;99.90
7307;DHT22;3694;48.732;9.248;2022-12-07T15:54:06;3.30;99.90
7307;DHT22;3694;48.732;9.248;2022-12-07T15:56:32;3.30;99.90
7307;DHT22;3694;48.732;9.248;2022-12-07T15:58:57;3.30;99.90
7307;DHT22;3694;48.732;9.248;2022-12-07T16:01:23;3.20;99.90
7307;DHT22;3694;48.732;9.248;2022-12-07T16:03:48;3.10;99.90
7307;DHT22;3694;48.732;9.248;2022-12-07T16:06:18;3.20;99.90
7307;DHT22;3694;48.732;9.248;2022-12-07T16:08:44;3.20;99.90
7307;DHT22;3694;48.732;9.248;2022-12-07T16:11:11;3.20;99.90
7307;DHT22;3694;48.732;9.248;2022-12-07T16:13:36;3.10;99.90
7307;DHT22;3694;48.732;9.248;2022-12-07T16:16:07;3.10;99.90
7307;DHT22;3694;48.732;9.248;2022-12-07T16:18:33;3.10;99.90
7307;DHT22;3694;48.732;9.248;2022-12-07T16:20:59;3.10;99.90
7307;DHT22;3694;48.732;9.248;2022-12-07T16:23:25;3.10;99.90
7307;DHT22;3694;48.732;9.248;2022-12-07T16:25:50;3.00;99.90
7307;DHT22;3694;48.732;9.248;2022-12-07T16:28:16;2.90;99.90
7307;DHT22;3694;48.732;9.248;2022-12-07T16:30:41;2.80;99.90
7307;DHT22;3694;48.732;9.248;2022-12-07T16:33:07;2.80;99.90
7307;DHT22;3694;48.732;9.248;2022-12-07T16:35:32;2.70;99.90
7307;DHT22;3694;48.732;9.248;2022-12-07T16:37:58;2.70;99.90
7307;DHT22;3694;48.732;9.248;2022-12-07T16:40:24;2.70;99.90
7307;DHT22;3694;48.732;9.248;2022-12-07T16:42:49;2.60;99.90
7307;DHT22;3694;48.732;9.248;2022-12-07T16:45:15;2.60;99.90
7307;DHT22;3694;48.732;9.248;2022-12-07T16:47:40;2.60;99.90
7307;DHT22;3694;48.732;9.248;2022-12-07T16:50:06;2.50;99.90
7307;DHT22;3694;48.732;9.248;2022-12-07T16:52:33;2.50;99.90
7307;DHT22;3694;48.732;9.248;2022-12-07T16:54:58;2.60;99.90
7307;DHT22;3694;48.732;9.248;2022-12-07T16:57:24;2.50;99.90
7307;DHT22;3694;48.732;9.248;2022-12-07T16:59:53;2.40;99.90
7307;DHT22;3694;48.732;9.248;2022-12-07T17:02:19;2.40;99.90
7307;DHT22;3694;48.732;9.248;2022-12-07T17:04:44;2.40;99.90
7307;DHT22;3694;48.732;9.248;2022-12-07T17:07:10;2.20;99.90
7307;DHT22;3694;48.732;9.248;2022-12-07T17:09:36;2.20;99.90
7307;DHT22;3694;48.732;9.248;2022-12-07T17:12:02;2.10;99.90
7307;DHT22;3694;48.732;9.248;2022-12-07T17:14:27;2.10;99.90
7307;DHT22;3694;48.732;9.248;2022-12-07T17:17:12;2.10;99.90
7307;DHT22;3694;48.732;9.248;2022-12-07T17:19:37;2.10;99.90
7307;DHT22;3694;48.732;9.248;2022-12-07T17:22:03;2.10;99.90
7307;DHT22;3694;48.732;9.248;2022-12-07T17:24:29;2.10;99.90
7307;DHT22;3694;48.732;9.248;2022-12-07T17:26:54;2.10;99.90
7307;DHT22;3694;48.732;9.248;2022-12-07T17:29:20;2.10;99.90
7307;DHT22;3694;48.732;9.248;2022-12-07T17:31:46;2.10;99.90
7307;DHT22;3694;48.732;9.248;2022-12-07T17:34:14;2.10;99.90
7307;DHT22;3694;48.732;9.248;2022-12-07T17:36:41;2.30;99.90
7307;DHT22;3694;48.732;9.248;2022-12-07T17:39:08;2.20;99.90
7307;DHT22;3694;48.732;9.248;2022-12-07T17:41:35;2.20;99.90
7307;DHT22;3694;48.732;9.248;2022-12-07T17:44:19;2.20;99.90
7307;DHT22;3694;48.732;9.248;2022-12-07T17:46:47;2.20;99.90
7307;DHT22;3694;48.732;9.248;2022-12-07T17:49:14;2.20;99.90
7307;DHT22;3694;48.732;9.248;2022-12-07T17:51:39;2.20;99.90
7307;DHT22;3694;48.732;9.248;2022-12-07T17:54:24;2.30;99.90
7307;DHT22;3694;48.732;9.248;2022-12-07T17:56:49;2.40;99.90
7307;DHT22;3694;48.732;9.248;2022-12-07T17:59:15;2.30;99.90
7307;DHT22;3694;48.732;9.248;2022-12-07T18:01:41;2.30;99.90
7307;DHT22;3694;48.732;9.248;2022-12-07T18:04:07;2.30;99.90
7307;DHT22;3694;48.732;9.248;2022-12-07T18:06:33;2.30;99.90
7307;DHT22;3694;48.732;9.248;2022-12-07T18:08:59;2.30;99.90
7307;DHT22;3694;48.732;9.248;2022-12-07T18:11:25;2.30;99.90
7307;DHT22;3694;48.732;9.248;2022-12-07T18:13:51;2.30;99.90
7307;DHT22;3694;48.732;9.248;2022-12-07T18:16:18;2.30;99.90
7307;DHT22;3694;48.732;9.248;2022-12-07T18:18:46;2.30;99.90
7307;DHT22;3694;48.732;9.248;2022-12-07T18:21:14;2.30;99.90
7307;DHT22;3694;48.732;9.248;2022-12-07T18:23:46;2.30;99.90
7307;DHT22;3694;48.732;9.248;2022-12-07T18:26:12;2.30;99.90
7307;DHT22;3694;48.732;9.248;2022-12-07T18:28:39;2.30;99.90
7307;DHT22;3694;48.732;9.248;2022-12-07T18:31:05;2.20;99.90
7307;DHT22;3694;48.732;9.248;2022-12-07T18:33:30;2.20;99.90
7307;DHT22;3694;48.732;9.248;2022-12-07T18:35:58;2.10;99.90
7307;DHT22;3694;48.732;9.248;2022-12-07T18:38:24;2.10;99.90
7307;DHT22;3694;48.732;9.248;2022-12-07T18:40:51;2.10;99.90
7307;DHT22;3694;48.732;9.248;2022-12-07T18:43:16;2.10;99.90